Axtell, KS (66403)

2:20 AM CST on February 08, 2016 (GMT -0600)
Brenner | | Change Station
CLOSE
Current Station
Airport
Location: Falls City,
Elevation: 984 ft
Nearby Weather Stations
Active Advisory: Wind Advisory

Elev 984 ft 40.08 °N, 95.59 °W | Updated 27 minutes ago

Overcast
Overcast
34 °F
Feels Like 23 °F
N
18
Wind Variable Wind from NNW
Gusts 31 mph

Today
High -- | Low -- °F
--% Chance of Precip.
Yesterday
High -- | Low -- °F
Precip. -- in
Pressure 30.02 in
Visibility 10.0 miles
Clouds Few 3500 ft
Scattered Clouds 4600 ft
Overcast 6000 ft
Windchill 23 °F
Dew Point 23 °F
Humidity 64%
Rainfall 0.00 in
Snow Depth Not available.
7:26 AM 5:52 PM
Waning Crescent, 0% visible
METAR KFNB 080753Z AUTO 33016G27KT 10SM FEW035 SCT046 OVC060 01/M05 A3001 RMK AO2 PK WND 32033/0742 SLP166 T00111050
Pressure 30.02 in
Visibility 10.0 miles
Clouds Few 3500 ft
Scattered Clouds 4600 ft
Overcast 6000 ft
Windchill 23 °F
Dew Point 23 °F
Humidity 64%
Rainfall 0.00 in
Snow Depth Not available.
7:26 AM 5:52 PM
Waning Crescent, 0% visible
METAR KFNB 080753Z AUTO 33016G27KT 10SM FEW035 SCT046 OVC060 01/M05 A3001 RMK AO2 PK WND 32033/0742 SLP166 T00111050

10-Day Weather Forecast

Almanac

Astronomy

Feb. 08, 2016 Rise Set
Actual Time
Civil Twilight
Nautical Twilight
Astronomical Twilight
Moon
Length of Visible Light
Length of Day
Tomorrow will be .
, % of the Moon is Illuminated

Today's Extremes

State Highs State Lows

Community

WunderPhotos

Upload Photos

1,891,412 photos uploaded!

WunderBlog® & News

Nearby

Air Quality

  Air Quality AQ Index Pollutant
Not available.

Snow Depth

Station Depth Elevation

Earthquake Activity

City Distance Mag. Time & Date
Minimum magnitude displayed is 2.5.

Coastal Water Temperatures

Place Temperature

Stations

Nearby Weather Stations

Station Location Temp. Windchill Dew Point Humidity Wind Precip. Elev Updated Type
                   

Watches & Warnings

Wind Advisory
Issued: 6:05 PM CST Feb. 7, 2016 – National Weather Service

... Wind Advisory remains in effect from 8 am to 6 PM CST Monday...

* timing... wind speeds are expected to increase shortly after
sunrise and continue through the late afternoon.

* Winds... northwest winds will be sustained from 25 to 35 mph
with gusts around 45 mph.

* Impacts... loose and lightweight objects may be blown around by
the wind. Motorists should keep both hands on the steering
wheel. Light snow or flurries are also possible... and this
wind would combine with any falling snow to create greatly
reduced and quickly changing visibilities.

Precautionary/preparedness actions...

A Wind Advisory means that sustained winds of 30 mph or gusts to
45 mph are expected. Winds this strong can make driving
difficult... especially for high profile vehicles. Use extra
caution.